Bookmark and Share
Track history (hours):
 

Emden

Last reported at 2014-Apr-24 08:32 UTC. Time now 2014-Apr-24 09:23 UTC.
Position N 53°20' E 007°10'.

Length 177 m; draft 7.9 m.

Type: Ship. MMSI: 355051000.

NotesDate/timePositionNaut miles runAvg speedWind from/ knotsBaromVisibWave heightAir tempDewpointWater temp
2014-Apr-24 08:32N 53°20' E 007°10'0 0.0
2014-Apr-24 07:32N 53°20' E 007°10'0 0.0
2014-Apr-24 06:32N 53°20' E 007°10'0 0.0
2014-Apr-24 05:32N 53°20' E 007°10'0 0.0
2014-Apr-24 04:33N 53°20' E 007°10'0 0.0
2014-Apr-24 03:33N 53°20' E 007°10'0 0.0
2014-Apr-24 02:33N 53°20' E 007°10'0 0.0
2014-Apr-24 01:33N 53°20' E 007°10'0 0.0
2014-Apr-24 00:33N 53°20' E 007°10'0 0.0
2014-Apr-23 23:33N 53°20' E 007°10'0 0.0
2014-Apr-23 22:33N 53°20' E 007°10'0 0.0
2014-Apr-23 21:33N 53°20' E 007°10'0 0.0
2014-Apr-23 20:33N 53°20' E 007°10'0 0.0
2014-Apr-23 19:33N 53°20' E 007°10'3 2.9
2014-Apr-23 18:33N 53°20' E 007°05'1212.2
2014-Apr-23 17:33N 53°28' E 006°51'1313.4
2014-Apr-23 16:33N 53°37' E 006°33'9 8.7
2014-Apr-23 15:33N 53°39' E 006°19'1 0.9
2014-Apr-23 14:33N 53°40' E 006°18'3 3.4
2014-Apr-23 13:33N 53°40' E 006°12'1212.0
2014-Apr-23 12:33N 53°39' E 005°52'1514.5
2014-Apr-23 11:33N 53°34' E 005°29'1514.7
2014-Apr-23 10:33N 53°30' E 005°06'1514.7
2014-Apr-23 09:34N 53°24' E 004°43'1514.9
2014-Apr-23 08:33N 53°11' E 004°31'1514.6
2014-Apr-23 07:30N 52°57' E 004°18'1313.6
2014-Apr-23 06:33N 52°46' E 004°07'1413.7
2014-Apr-23 05:33N 52°36' E 003°53'1313.4
2014-Apr-23 04:33N 52°27' E 003°37'1513.1
2014-Apr-23 03:23N 52°16' E 003°19'1112.7
2014-Apr-23 02:31N 52°08' E 003°06'2612.9
2014-Apr-23 00:31N 51°48' E 002°39'1313.4
2014-Apr-22 23:33N 51°38' E 002°26'1414.1
2014-Apr-22 22:33N 51°27' E 002°12'1414.5
2014-Apr-22 21:34N 51°14' E 002°04'1514.6
2014-Apr-22 20:34N 51°06' E 001°44'1515.4
2014-Apr-22 19:34N 50°56' E 001°25'1515.1
2014-Apr-22 18:33N 50°42' E 001°19'1514.8
2014-Apr-22 17:33N 50°32' E 001°02'1414.2
2014-Apr-22 16:33N 50°26' E 000°41'1514.6
2014-Apr-22 15:33N 50°23' E 000°19'2115.4
2014-Apr-22 14:12N 50°17' W 000°12'1016.0
2014-Apr-22 13:33N 50°14' W 000°28'1616.3
2014-Apr-22 12:33N 50°09' W 000°52'1616.0
2014-Apr-22 11:32N 50°06' W 001°17'1515.2
2014-Apr-22 10:34N 50°03' W 001°40'  
2014-Apr-20 03:33N 38°25' W 009°27'1514.7
2014-Apr-20 02:33N 38°20' W 009°09'1211.9
2014-Apr-20 01:33N 38°28' W 008°58'5 4.6
2014-Apr-20 00:25N 38°31' W 008°52'0 0.0
2014-Apr-19 20:19N 38°31' W 008°52'0 0.0
2014-Apr-19 19:13N 38°31' W 008°52'0 0.0
2014-Apr-19 18:28N 38°31' W 008°52'0 0.0
2014-Apr-19 16:22N 38°31' W 008°52'0 0.0
2014-Apr-19 15:04N 38°31' W 008°52'0 0.0
2014-Apr-19 14:16N 38°31' W 008°52'0 0.0
2014-Apr-19 13:28N 38°31' W 008°52'0 0.0
2014-Apr-19 12:28N 38°31' W 008°52'5 5.3
2014-Apr-19 11:33N 38°28' W 008°57'6 5.7
2014-Apr-19 10:34N 38°24' W 009°02'1211.6
2014-Apr-19 09:33N 38°21' W 009°16'4514.7
2014-Apr-19 06:29N 38°44' W 010°05'36112.5
2014-Apr-18 01:32N 43°49' W 005°49'1615.9
2014-Apr-18 00:33N 43°47' W 005°27'1615.7
2014-Apr-17 23:33N 43°44' W 005°06'3315.9
2014-Apr-17 21:30N 43°37' W 004°22'23 1.8
2014-Apr-17 09:05N 43°47' W 003°54'3116.3
2014-Apr-17 07:12N 44°16' W 004°06'1016.2
2014-Apr-17 06:33N 44°26' W 004°11'1616.3
2014-Apr-17 05:33N 44°41' W 004°18'1716.5
2014-Apr-17 04:33N 44°57' W 004°26'37015.3
2014-Apr-16 04:18N 51°02' W 006°00'9115.8
2014-Apr-15 22:30N 52°33' W 005°53'2014.1
2014-Apr-15 21:07N 52°53' W 005°53'2910.7
2014-Apr-15 18:21N 53°21' W 006°10'2 1.8
2014-Apr-15 17:28N 53°21' W 006°13'0 0.0
2014-Apr-15 16:22N 53°21' W 006°13'0 0.0
2014-Apr-15 00:31N 53°21' W 006°13'0 0.0
2014-Apr-14 23:31N 53°21' W 006°13'2 1.9
2014-Apr-14 22:34N 53°21' W 006°10'  

Dump ship's entire track history

sailing weather and tide predictions

Emden — 3ERP5 — position and weather